sensor_id;sensor_type;location;lat;lon;timestamp;pressure;altitude;pressure_sealevel;temperature
65569;BMP180;52211;50.154;8.682;2023-04-03T00:01:34;101082.00;;;10.70
65569;BMP180;52211;50.154;8.682;2023-04-03T00:04:01;101087.00;;;10.70
65569;BMP180;52211;50.154;8.682;2023-04-03T00:06:30;101077.00;;;10.70
65569;BMP180;52211;50.154;8.682;2023-04-03T00:09:00;101085.00;;;10.80
65569;BMP180;52211;50.154;8.682;2023-04-03T00:11:30;101088.00;;;10.80
65569;BMP180;52211;50.154;8.682;2023-04-03T00:13:57;101085.00;;;10.80
65569;BMP180;52211;50.154;8.682;2023-04-03T00:16:26;101091.00;;;10.80
65569;BMP180;52211;50.154;8.682;2023-04-03T00:18:53;101094.00;;;10.80
65569;BMP180;52211;50.154;8.682;2023-04-03T00:21:22;101095.00;;;10.80
65569;BMP180;52211;50.154;8.682;2023-04-03T00:23:51;101100.00;;;10.90
65569;BMP180;52211;50.154;8.682;2023-04-03T00:26:18;101094.00;;;10.90
65569;BMP180;52211;50.154;8.682;2023-04-03T00:28:52;101100.00;;;10.90
65569;BMP180;52211;50.154;8.682;2023-04-03T00:31:24;101099.00;;;10.90
65569;BMP180;52211;50.154;8.682;2023-04-03T00:33:53;101099.00;;;10.90
65569;BMP180;52211;50.154;8.682;2023-04-03T00:36:20;101084.00;;;10.90
65569;BMP180;52211;50.154;8.682;2023-04-03T00:38:50;101096.00;;;10.90
65569;BMP180;52211;50.154;8.682;2023-04-03T00:41:20;101099.00;;;10.90
65569;BMP180;52211;50.154;8.682;2023-04-03T00:43:56;101093.00;;;10.90
65569;BMP180;52211;50.154;8.682;2023-04-03T00:46:23;101102.00;;;10.80
65569;BMP180;52211;50.154;8.682;2023-04-03T00:48:52;101106.00;;;10.80
65569;BMP180;52211;50.154;8.682;2023-04-03T00:51:26;101108.00;;;10.90
65569;BMP180;52211;50.154;8.682;2023-04-03T00:54:03;101105.00;;;10.90
65569;BMP180;52211;50.154;8.682;2023-04-03T00:56:36;101099.00;;;10.90
65569;BMP180;52211;50.154;8.682;2023-04-03T00:59:16;101102.00;;;10.90
65569;BMP180;52211;50.154;8.682;2023-04-03T01:01:50;101103.00;;;10.90
65569;BMP180;52211;50.154;8.682;2023-04-03T01:04:41;101105.00;;;10.90
65569;BMP180;52211;50.154;8.682;2023-04-03T01:07:35;101108.00;;;10.90
65569;BMP180;52211;50.154;8.682;2023-04-03T01:10:09;101100.00;;;10.90
65569;BMP180;52211;50.154;8.682;2023-04-03T01:12:42;101109.00;;;10.90
65569;BMP180;52211;50.154;8.682;2023-04-03T01:15:23;101113.00;;;10.90
65569;BMP180;52211;50.154;8.682;2023-04-03T01:18:00;101112.00;;;10.90
65569;BMP180;52211;50.154;8.682;2023-04-03T01:25:46;101115.00;;;10.90
65569;BMP180;52211;50.154;8.682;2023-04-03T01:28:35;101108.00;;;10.90
65569;BMP180;52211;50.154;8.682;2023-04-03T01:31:31;101105.00;;;10.90
65569;BMP180;52211;50.154;8.682;2023-04-03T01:34:03;101108.00;;;10.90
65569;BMP180;52211;50.154;8.682;2023-04-03T01:36:32;101104.00;;;10.90
65569;BMP180;52211;50.154;8.682;2023-04-03T01:39:01;101103.00;;;10.90
65569;BMP180;52211;50.154;8.682;2023-04-03T01:41:31;101102.00;;;10.90
65569;BMP180;52211;50.154;8.682;2023-04-03T01:44:07;101103.00;;;10.90
65569;BMP180;52211;50.154;8.682;2023-04-03T01:46:39;101106.00;;;10.90
65569;BMP180;52211;50.154;8.682;2023-04-03T01:49:06;101109.00;;;10.90
65569;BMP180;52211;50.154;8.682;2023-04-03T01:51:33;101106.00;;;11.00
65569;BMP180;52211;50.154;8.682;2023-04-03T01:54:05;101109.00;;;11.00
65569;BMP180;52211;50.154;8.682;2023-04-03T01:56:31;101107.00;;;11.00
65569;BMP180;52211;50.154;8.682;2023-04-03T01:59:05;101111.00;;;10.90
65569;BMP180;52211;50.154;8.682;2023-04-03T02:01:32;101119.00;;;11.00
65569;BMP180;52211;50.154;8.682;2023-04-03T02:04:00;101112.00;;;10.90
65569;BMP180;52211;50.154;8.682;2023-04-03T02:06:27;101104.00;;;11.00
65569;BMP180;52211;50.154;8.682;2023-04-03T02:08:56;101112.00;;;11.00
65569;BMP180;52211;50.154;8.682;2023-04-03T02:11:26;101113.00;;;10.90
65569;BMP180;52211;50.154;8.682;2023-04-03T02:13:55;101114.00;;;10.90
65569;BMP180;52211;50.154;8.682;2023-04-03T02:16:28;101112.00;;;10.90
65569;BMP180;52211;50.154;8.682;2023-04-03T02:19:00;101113.00;;;10.90
65569;BMP180;52211;50.154;8.682;2023-04-03T02:21:33;101119.00;;;10.90
65569;BMP180;52211;50.154;8.682;2023-04-03T02:24:02;101112.00;;;10.90
65569;BMP180;52211;50.154;8.682;2023-04-03T02:26:29;101113.00;;;10.90
65569;BMP180;52211;50.154;8.682;2023-04-03T02:28:58;101112.00;;;10.90
65569;BMP180;52211;50.154;8.682;2023-04-03T02:31:25;101113.00;;;10.90
65569;BMP180;52211;50.154;8.682;2023-04-03T02:33:55;101108.00;;;10.90
65569;BMP180;52211;50.154;8.682;2023-04-03T02:36:27;101106.00;;;10.90
65569;BMP180;52211;50.154;8.682;2023-04-03T02:38:59;101104.00;;;10.90
65569;BMP180;52211;50.154;8.682;2023-04-03T02:41:29;101115.00;;;10.90
65569;BMP180;52211;50.154;8.682;2023-04-03T02:44:08;101109.00;;;10.90
65569;BMP180;52211;50.154;8.682;2023-04-03T02:46:35;101109.00;;;10.90
65569;BMP180;52211;50.154;8.682;2023-04-03T02:49:03;101114.00;;;10.90
65569;BMP180;52211;50.154;8.682;2023-04-03T02:51:33;101116.00;;;10.90
65569;BMP180;52211;50.154;8.682;2023-04-03T02:54:02;101122.00;;;10.90
65569;BMP180;52211;50.154;8.682;2023-04-03T02:56:33;101114.00;;;10.90
65569;BMP180;52211;50.154;8.682;2023-04-03T02:59:00;101115.00;;;10.90
65569;BMP180;52211;50.154;8.682;2023-04-03T03:01:30;101102.00;;;10.80
65569;BMP180;52211;50.154;8.682;2023-04-03T03:04:00;101106.00;;;10.80
65569;BMP180;52211;50.154;8.682;2023-04-03T03:06:29;101105.00;;;10.80
65569;BMP180;52211;50.154;8.682;2023-04-03T03:08:56;101108.00;;;10.80
65569;BMP180;52211;50.154;8.682;2023-04-03T03:11:27;101099.00;;;10.80
65569;BMP180;52211;50.154;8.682;2023-04-03T03:13:55;101110.00;;;10.80
65569;BMP180;52211;50.154;8.682;2023-04-03T03:16:27;101109.00;;;10.80
65569;BMP180;52211;50.154;8.682;2023-04-03T03:18:59;101111.00;;;10.70
65569;BMP180;52211;50.154;8.682;2023-04-03T03:21:27;101104.00;;;10.70
65569;BMP180;52211;50.154;8.682;2023-04-03T03:23:58;101109.00;;;10.70
65569;BMP180;52211;50.154;8.682;2023-04-03T03:26:28;101106.00;;;10.70
65569;BMP180;52211;50.154;8.682;2023-04-03T03:28:59;101114.00;;;10.70
65569;BMP180;52211;50.154;8.682;2023-04-03T03:31:29;101106.00;;;10.70
65569;BMP180;52211;50.154;8.682;2023-04-03T03:33:59;101109.00;;;10.60
65569;BMP180;52211;50.154;8.682;2023-04-03T03:36:28;101108.00;;;10.60
65569;BMP180;52211;50.154;8.682;2023-04-03T03:38:57;101113.00;;;10.60
65569;BMP180;52211;50.154;8.682;2023-04-03T03:41:24;101113.00;;;10.60
65569;BMP180;52211;50.154;8.682;2023-04-03T03:43:54;101108.00;;;10.50
65569;BMP180;52211;50.154;8.682;2023-04-03T03:46:21;101125.00;;;10.50
65569;BMP180;52211;50.154;8.682;2023-04-03T03:48:48;101117.00;;;10.50
65569;BMP180;52211;50.154;8.682;2023-04-03T03:51:17;101114.00;;;10.40
65569;BMP180;52211;50.154;8.682;2023-04-03T03:53:50;101114.00;;;10.30
65569;BMP180;52211;50.154;8.682;2023-04-03T03:56:23;101120.00;;;10.30
65569;BMP180;52211;50.154;8.682;2023-04-03T03:58:55;101115.00;;;10.30
65569;BMP180;52211;50.154;8.682;2023-04-03T04:01:24;101115.00;;;10.30
65569;BMP180;52211;50.154;8.682;2023-04-03T04:03:55;101117.00;;;10.20
65569;BMP180;52211;50.154;8.682;2023-04-03T04:06:32;101124.00;;;10.20
65569;BMP180;52211;50.154;8.682;2023-04-03T04:09:08;101129.00;;;10.10
65569;BMP180;52211;50.154;8.682;2023-04-03T04:11:40;101138.00;;;10.10
65569;BMP180;52211;50.154;8.682;2023-04-03T04:14:11;101131.00;;;10.10
65569;BMP180;52211;50.154;8.682;2023-04-03T04:16:43;101129.00;;;10.10
65569;BMP180;52211;50.154;8.682;2023-04-03T04:19:19;101125.00;;;10.00
65569;BMP180;52211;50.154;8.682;2023-04-03T04:21:46;101127.00;;;10.00
65569;BMP180;52211;50.154;8.682;2023-04-03T04:24:14;101117.00;;;10.00
65569;BMP180;52211;50.154;8.682;2023-04-03T04:26:44;101120.00;;;9.90
65569;BMP180;52211;50.154;8.682;2023-04-03T04:29:15;101120.00;;;9.90
65569;BMP180;52211;50.154;8.682;2023-04-03T04:31:50;101124.00;;;9.80
65569;BMP180;52211;50.154;8.682;2023-04-03T04:34:19;101123.00;;;9.80
65569;BMP180;52211;50.154;8.682;2023-04-03T04:36:49;101123.00;;;9.80
65569;BMP180;52211;50.154;8.682;2023-04-03T04:39:21;101123.00;;;9.70
65569;BMP180;52211;50.154;8.682;2023-04-03T04:41:50;101120.00;;;9.70
65569;BMP180;52211;50.154;8.682;2023-04-03T04:44:20;101140.00;;;9.70
65569;BMP180;52211;50.154;8.682;2023-04-03T04:46:52;101142.00;;;9.70
65569;BMP180;52211;50.154;8.682;2023-04-03T04:49:23;101139.00;;;9.60
65569;BMP180;52211;50.154;8.682;2023-04-03T04:51:57;101137.00;;;9.60
65569;BMP180;52211;50.154;8.682;2023-04-03T04:54:28;101134.00;;;9.60
65569;BMP180;52211;50.154;8.682;2023-04-03T04:56:58;101134.00;;;9.50
65569;BMP180;52211;50.154;8.682;2023-04-03T04:59:29;101137.00;;;9.50
65569;BMP180;52211;50.154;8.682;2023-04-03T05:01:57;101145.00;;;9.50
65569;BMP180;52211;50.154;8.682;2023-04-03T05:04:27;101137.00;;;9.50
65569;BMP180;52211;50.154;8.682;2023-04-03T05:07:03;101143.00;;;9.50
65569;BMP180;52211;50.154;8.682;2023-04-03T05:09:33;101150.00;;;9.50
65569;BMP180;52211;50.154;8.682;2023-04-03T05:12:00;101149.00;;;9.40
65569;BMP180;52211;50.154;8.682;2023-04-03T05:14:36;101157.00;;;9.40
65569;BMP180;52211;50.154;8.682;2023-04-03T05:17:06;101156.00;;;9.40
65569;BMP180;52211;50.154;8.682;2023-04-03T05:19:36;101165.00;;;9.40
65569;BMP180;52211;50.154;8.682;2023-04-03T05:22:06;101168.00;;;9.40
65569;BMP180;52211;50.154;8.682;2023-04-03T05:24:34;101176.00;;;9.30
65569;BMP180;52211;50.154;8.682;2023-04-03T05:27:06;101175.00;;;9.30
65569;BMP180;52211;50.154;8.682;2023-04-03T05:29:39;101174.00;;;9.30
65569;BMP180;52211;50.154;8.682;2023-04-03T05:32:18;101172.00;;;9.30
65569;BMP180;52211;50.154;8.682;2023-04-03T05:34:53;101182.00;;;9.20
65569;BMP180;52211;50.154;8.682;2023-04-03T05:37:23;101175.00;;;9.20
65569;BMP180;52211;50.154;8.682;2023-04-03T05:39:52;101184.00;;;9.20
65569;BMP180;52211;50.154;8.682;2023-04-03T05:42:24;101184.00;;;9.10
65569;BMP180;52211;50.154;8.682;2023-04-03T05:44:53;101179.00;;;9.10
65569;BMP180;52211;50.154;8.682;2023-04-03T05:47:22;101190.00;;;9.10
65569;BMP180;52211;50.154;8.682;2023-04-03T05:49:51;101192.00;;;9.10
65569;BMP180;52211;50.154;8.682;2023-04-03T05:52:33;101197.00;;;9.00
65569;BMP180;52211;50.154;8.682;2023-04-03T05:55:10;101191.00;;;9.00
65569;BMP180;52211;50.154;8.682;2023-04-03T05:57:41;101197.00;;;9.00
65569;BMP180;52211;50.154;8.682;2023-04-03T06:00:13;101198.00;;;9.00
65569;BMP180;52211;50.154;8.682;2023-04-03T06:02:47;101202.00;;;9.00
65569;BMP180;52211;50.154;8.682;2023-04-03T06:05:21;101198.00;;;9.00
65569;BMP180;52211;50.154;8.682;2023-04-03T06:07:54;101210.00;;;8.90
65569;BMP180;52211;50.154;8.682;2023-04-03T06:10:23;101207.00;;;8.90
65569;BMP180;52211;50.154;8.682;2023-04-03T06:12:53;101209.00;;;8.90
65569;BMP180;52211;50.154;8.682;2023-04-03T06:15:23;101218.00;;;8.80
65569;BMP180;52211;50.154;8.682;2023-04-03T06:17:52;101216.00;;;8.80
65569;BMP180;52211;50.154;8.682;2023-04-03T06:20:21;101220.00;;;8.80
65569;BMP180;52211;50.154;8.682;2023-04-03T06:22:57;101233.00;;;8.80
65569;BMP180;52211;50.154;8.682;2023-04-03T06:25:24;101228.00;;;8.80
65569;BMP180;52211;50.154;8.682;2023-04-03T06:27:51;101225.00;;;8.70
65569;BMP180;52211;50.154;8.682;2023-04-03T06:30:24;101232.00;;;8.70
65569;BMP180;52211;50.154;8.682;2023-04-03T06:32:56;101230.00;;;8.70
65569;BMP180;52211;50.154;8.682;2023-04-03T06:35:23;101231.00;;;8.70
65569;BMP180;52211;50.154;8.682;2023-04-03T06:37:54;101234.00;;;8.70
65569;BMP180;52211;50.154;8.682;2023-04-03T06:40:24;101240.00;;;8.70
65569;BMP180;52211;50.154;8.682;2023-04-03T06:42:54;101245.00;;;8.70
65569;BMP180;52211;50.154;8.682;2023-04-03T06:45:21;101243.00;;;8.80
65569;BMP180;52211;50.154;8.682;2023-04-03T06:47:48;101242.00;;;8.70
65569;BMP180;52211;50.154;8.682;2023-04-03T06:50:15;101244.00;;;8.80
65569;BMP180;52211;50.154;8.682;2023-04-03T06:52:45;101256.00;;;8.80
65569;BMP180;52211;50.154;8.682;2023-04-03T06:55:14;101251.00;;;8.80
65569;BMP180;52211;50.154;8.682;2023-04-03T06:57:46;101255.00;;;8.80
65569;BMP180;52211;50.154;8.682;2023-04-03T07:00:16;101252.00;;;8.80
65569;BMP180;52211;50.154;8.682;2023-04-03T07:02:43;101256.00;;;8.80
65569;BMP180;52211;50.154;8.682;2023-04-03T07:05:10;101268.00;;;8.80
65569;BMP180;52211;50.154;8.682;2023-04-03T07:07:40;101261.00;;;8.80
65569;BMP180;52211;50.154;8.682;2023-04-03T07:10:10;101266.00;;;8.80
65569;BMP180;52211;50.154;8.682;2023-04-03T07:12:37;101268.00;;;8.80
65569;BMP180;52211;50.154;8.682;2023-04-03T07:15:11;101273.00;;;8.80
65569;BMP180;52211;50.154;8.682;2023-04-03T07:17:42;101280.00;;;8.90
65569;BMP180;52211;50.154;8.682;2023-04-03T07:20:13;101285.00;;;8.90
65569;BMP180;52211;50.154;8.682;2023-04-03T07:22:41;101284.00;;;8.80
65569;BMP180;52211;50.154;8.682;2023-04-03T07:25:10;101294.00;;;8.90
65569;BMP180;52211;50.154;8.682;2023-04-03T07:27:39;101286.00;;;8.90
65569;BMP180;52211;50.154;8.682;2023-04-03T07:30:09;101290.00;;;8.90
65569;BMP180;52211;50.154;8.682;2023-04-03T07:32:38;101294.00;;;8.90
65569;BMP180;52211;50.154;8.682;2023-04-03T07:35:05;101297.00;;;9.00
65569;BMP180;52211;50.154;8.682;2023-04-03T07:37:35;101289.00;;;9.00
65569;BMP180;52211;50.154;8.682;2023-04-03T07:40:05;101295.00;;;9.10
65569;BMP180;52211;50.154;8.682;2023-04-03T07:42:37;101303.00;;;9.10
65569;BMP180;52211;50.154;8.682;2023-04-03T07:45:05;101297.00;;;9.10
65569;BMP180;52211;50.154;8.682;2023-04-03T07:47:34;101295.00;;;9.10
65569;BMP180;52211;50.154;8.682;2023-04-03T07:50:07;101293.00;;;9.20
65569;BMP180;52211;50.154;8.682;2023-04-03T07:52:37;101302.00;;;9.20
65569;BMP180;52211;50.154;8.682;2023-04-03T07:55:04;101302.00;;;9.30
65569;BMP180;52211;50.154;8.682;2023-04-03T07:57:33;101305.00;;;9.30
65569;BMP180;52211;50.154;8.682;2023-04-03T08:00:06;101305.00;;;9.30
65569;BMP180;52211;50.154;8.682;2023-04-03T08:02:45;101296.00;;;9.40
65569;BMP180;52211;50.154;8.682;2023-04-03T08:05:20;101300.00;;;9.40
65569;BMP180;52211;50.154;8.682;2023-04-03T08:07:50;101307.00;;;9.50
65569;BMP180;52211;50.154;8.682;2023-04-03T08:10:17;101309.00;;;9.50
65569;BMP180;52211;50.154;8.682;2023-04-03T08:12:48;101307.00;;;9.60
65569;BMP180;52211;50.154;8.682;2023-04-03T08:15:17;101309.00;;;9.60
65569;BMP180;52211;50.154;8.682;2023-04-03T08:17:44;101310.00;;;9.70
65569;BMP180;52211;50.154;8.682;2023-04-03T08:20:12;101309.00;;;9.80
65569;BMP180;52211;50.154;8.682;2023-04-03T08:22:39;101302.00;;;9.80
65569;BMP180;52211;50.154;8.682;2023-04-03T08:25:09;101292.00;;;9.90
65569;BMP180;52211;50.154;8.682;2023-04-03T08:27:36;101299.00;;;10.00
65569;BMP180;52211;50.154;8.682;2023-04-03T08:30:04;101298.00;;;10.00
65569;BMP180;52211;50.154;8.682;2023-04-03T08:32:34;101300.00;;;10.10
65569;BMP180;52211;50.154;8.682;2023-04-03T08:35:05;101309.00;;;10.10
65569;BMP180;52211;50.154;8.682;2023-04-03T08:37:35;101291.00;;;10.20
65569;BMP180;52211;50.154;8.682;2023-04-03T08:40:05;101296.00;;;10.30
65569;BMP180;52211;50.154;8.682;2023-04-03T08:45:48;101296.00;;;10.50
65569;BMP180;52211;50.154;8.682;2023-04-03T08:48:24;101294.00;;;10.60
65569;BMP180;52211;50.154;8.682;2023-04-03T08:51:05;101292.00;;;10.70
65569;BMP180;52211;50.154;8.682;2023-04-03T08:53:44;101293.00;;;10.80
65569;BMP180;52211;50.154;8.682;2023-04-03T08:56:15;101292.00;;;10.80
65569;BMP180;52211;50.154;8.682;2023-04-03T08:58:59;101297.00;;;10.90
65569;BMP180;52211;50.154;8.682;2023-04-03T09:01:41;101295.00;;;11.00
65569;BMP180;52211;50.154;8.682;2023-04-03T09:04:19;101295.00;;;11.00
65569;BMP180;52211;50.154;8.682;2023-04-03T09:06:54;101295.00;;;11.00
65569;BMP180;52211;50.154;8.682;2023-04-03T09:09:39;101295.00;;;11.00
65569;BMP180;52211;50.154;8.682;2023-04-03T09:15:24;101310.00;;;11.00
65569;BMP180;52211;50.154;8.682;2023-04-03T09:18:19;101309.00;;;11.00
65569;BMP180;52211;50.154;8.682;2023-04-03T09:23:58;101299.00;;;11.10
65569;BMP180;52211;50.154;8.682;2023-04-03T09:26:33;101297.00;;;11.10
65569;BMP180;52211;50.154;8.682;2023-04-03T09:29:10;101301.00;;;11.20
65569;BMP180;52211;50.154;8.682;2023-04-03T09:31:45;101302.00;;;11.30
65569;BMP180;52211;50.154;8.682;2023-04-03T09:34:32;101298.00;;;11.30
65569;BMP180;52211;50.154;8.682;2023-04-03T09:37:04;101286.00;;;11.30
65569;BMP180;52211;50.154;8.682;2023-04-03T09:39:50;101282.00;;;11.40
65569;BMP180;52211;50.154;8.682;2023-04-03T09:42:26;101291.00;;;11.40
65569;BMP180;52211;50.154;8.682;2023-04-03T09:45:01;101285.00;;;11.50
65569;BMP180;52211;50.154;8.682;2023-04-03T09:47:32;101285.00;;;11.60
65569;BMP180;52211;50.154;8.682;2023-04-03T09:52:49;101299.00;;;11.70
65569;BMP180;52211;50.154;8.682;2023-04-03T09:55:27;101292.00;;;11.80
65569;BMP180;52211;50.154;8.682;2023-04-03T09:58:03;101293.00;;;11.90
65569;BMP180;52211;50.154;8.682;2023-04-03T10:00:34;101289.00;;;12.00
65569;BMP180;52211;50.154;8.682;2023-04-03T10:03:24;101294.00;;;12.10
65569;BMP180;52211;50.154;8.682;2023-04-03T10:05:51;101286.00;;;12.20
65569;BMP180;52211;50.154;8.682;2023-04-03T10:08:26;101293.00;;;12.30
65569;BMP180;52211;50.154;8.682;2023-04-03T10:11:19;101292.00;;;12.30
65569;BMP180;52211;50.154;8.682;2023-04-03T10:14:02;101287.00;;;12.30
65569;BMP180;52211;50.154;8.682;2023-04-03T10:16:41;101279.00;;;12.40
65569;BMP180;52211;50.154;8.682;2023-04-03T10:28:18;101281.00;;;12.70
65569;BMP180;52211;50.154;8.682;2023-04-03T10:31:13;101282.00;;;12.80
65569;BMP180;52211;50.154;8.682;2023-04-03T10:37:24;101283.00;;;13.10
65569;BMP180;52211;50.154;8.682;2023-04-03T10:46:29;101290.00;;;13.80
65569;BMP180;52211;50.154;8.682;2023-04-03T10:49:47;101281.00;;;14.10
65569;BMP180;52211;50.154;8.682;2023-04-03T10:52:52;101282.00;;;14.40
65569;BMP180;52211;50.154;8.682;2023-04-03T10:57:58;101267.00;;;14.70
65569;BMP180;52211;50.154;8.682;2023-04-03T11:00:49;101274.00;;;14.80
65569;BMP180;52211;50.154;8.682;2023-04-03T11:03:38;101272.00;;;15.10
65569;BMP180;52211;50.154;8.682;2023-04-03T11:06:14;101260.00;;;15.30
65569;BMP180;52211;50.154;8.682;2023-04-03T11:11:32;101249.00;;;15.80
65569;BMP180;52211;50.154;8.682;2023-04-03T11:17:15;101248.00;;;16.30
65569;BMP180;52211;50.154;8.682;2023-04-03T11:20:14;101242.00;;;16.50
65569;BMP180;52211;50.154;8.682;2023-04-03T11:23:00;101240.00;;;16.70
65569;BMP180;52211;50.154;8.682;2023-04-03T11:25:36;101242.00;;;17.00
65569;BMP180;52211;50.154;8.682;2023-04-03T11:28:12;101242.00;;;17.10
65569;BMP180;52211;50.154;8.682;2023-04-03T11:33:55;101254.00;;;17.60
65569;BMP180;52211;50.154;8.682;2023-04-03T11:36:33;101240.00;;;17.80
65569;BMP180;52211;50.154;8.682;2023-04-03T11:39:37;101239.00;;;18.00
65569;BMP180;52211;50.154;8.682;2023-04-03T11:42:37;101231.00;;;18.20
65569;BMP180;52211;50.154;8.682;2023-04-03T11:55:53;101229.00;;;19.40
65569;BMP180;52211;50.154;8.682;2023-04-03T11:58:36;101227.00;;;19.70
65569;BMP180;52211;50.154;8.682;2023-04-03T12:01:09;101225.00;;;19.80
65569;BMP180;52211;50.154;8.682;2023-04-03T12:08:52;101217.00;;;20.10
65569;BMP180;52211;50.154;8.682;2023-04-03T12:11:33;101210.00;;;20.30
65569;BMP180;52211;50.154;8.682;2023-04-03T12:14:15;101218.00;;;20.50
65569;BMP180;52211;50.154;8.682;2023-04-03T12:16:47;101209.00;;;20.60
65569;BMP180;52211;50.154;8.682;2023-04-03T12:19:41;101224.00;;;20.70
65569;BMP180;52211;50.154;8.682;2023-04-03T12:22:16;101217.00;;;20.80
65569;BMP180;52211;50.154;8.682;2023-04-03T12:24:51;101208.00;;;20.80
65569;BMP180;52211;50.154;8.682;2023-04-03T12:27:33;101198.00;;;20.90
65569;BMP180;52211;50.154;8.682;2023-04-03T12:39:13;101198.00;;;21.20
65569;BMP180;52211;50.154;8.682;2023-04-03T12:41:56;101197.00;;;21.30
65569;BMP180;52211;50.154;8.682;2023-04-03T12:44:37;101196.00;;;21.40
65569;BMP180;52211;50.154;8.682;2023-04-03T12:47:28;101191.00;;;21.50
65569;BMP180;52211;50.154;8.682;2023-04-03T12:49:58;101192.00;;;21.50
65569;BMP180;52211;50.154;8.682;2023-04-03T12:52:50;101186.00;;;21.50
65569;BMP180;52211;50.154;8.682;2023-04-03T12:55:20;101183.00;;;21.60
65569;BMP180;52211;50.154;8.682;2023-04-03T12:57:48;101177.00;;;21.60
65569;BMP180;52211;50.154;8.682;2023-04-03T13:00:34;101178.00;;;21.60
65569;BMP180;52211;50.154;8.682;2023-04-03T13:03:04;101179.00;;;21.70
65569;BMP180;52211;50.154;8.682;2023-04-03T13:05:36;101163.00;;;21.80
65569;BMP180;52211;50.154;8.682;2023-04-03T13:08:14;101164.00;;;21.80
65569;BMP180;52211;50.154;8.682;2023-04-03T13:11:09;101166.00;;;21.80
65569;BMP180;52211;50.154;8.682;2023-04-03T13:13:39;101167.00;;;21.80
65569;BMP180;52211;50.154;8.682;2023-04-03T13:16:10;101166.00;;;21.70
65569;BMP180;52211;50.154;8.682;2023-04-03T13:18:38;101170.00;;;21.80
65569;BMP180;52211;50.154;8.682;2023-04-03T13:21:30;101179.00;;;21.70
65569;BMP180;52211;50.154;8.682;2023-04-03T13:24:04;101176.00;;;21.60
65569;BMP180;52211;50.154;8.682;2023-04-03T13:26:42;101171.00;;;21.70
65569;BMP180;52211;50.154;8.682;2023-04-03T13:29:42;101182.00;;;21.60
65569;BMP180;52211;50.154;8.682;2023-04-03T13:32:23;101176.00;;;21.70
65569;BMP180;52211;50.154;8.682;2023-04-03T13:34:55;101160.00;;;21.70
65569;BMP180;52211;50.154;8.682;2023-04-03T13:37:30;101168.00;;;21.80
65569;BMP180;52211;50.154;8.682;2023-04-03T13:40:18;101158.00;;;21.80
65569;BMP180;52211;50.154;8.682;2023-04-03T13:43:00;101167.00;;;21.90
65569;BMP180;52211;50.154;8.682;2023-04-03T13:45:33;101162.00;;;21.90
65569;BMP180;52211;50.154;8.682;2023-04-03T13:48:20;101162.00;;;22.00
65569;BMP180;52211;50.154;8.682;2023-04-03T13:51:04;101158.00;;;22.00
65569;BMP180;52211;50.154;8.682;2023-04-03T13:53:34;101160.00;;;22.00
65569;BMP180;52211;50.154;8.682;2023-04-03T13:56:38;101160.00;;;22.00
65569;BMP180;52211;50.154;8.682;2023-04-03T14:01:47;101148.00;;;22.10
65569;BMP180;52211;50.154;8.682;2023-04-03T14:07:17;101150.00;;;22.10
65569;BMP180;52211;50.154;8.682;2023-04-03T14:09:47;101134.00;;;22.20
65569;BMP180;52211;50.154;8.682;2023-04-03T14:12:36;101131.00;;;22.20
65569;BMP180;52211;50.154;8.682;2023-04-03T14:15:24;101143.00;;;22.30
65569;BMP180;52211;50.154;8.682;2023-04-03T14:17:55;101138.00;;;22.40
65569;BMP180;52211;50.154;8.682;2023-04-03T14:20:28;101140.00;;;22.40
65569;BMP180;52211;50.154;8.682;2023-04-03T14:22:58;101141.00;;;22.50
65569;BMP180;52211;50.154;8.682;2023-04-03T14:25:33;101141.00;;;22.60
65569;BMP180;52211;50.154;8.682;2023-04-03T14:28:15;101133.00;;;22.60
65569;BMP180;52211;50.154;8.682;2023-04-03T14:30:45;101134.00;;;22.60
65569;BMP180;52211;50.154;8.682;2023-04-03T14:33:20;101125.00;;;22.60
65569;BMP180;52211;50.154;8.682;2023-04-03T14:35:48;101118.00;;;22.60
65569;BMP180;52211;50.154;8.682;2023-04-03T14:38:27;101121.00;;;22.50
65569;BMP180;52211;50.154;8.682;2023-04-03T14:40:58;101123.00;;;22.50
65569;BMP180;52211;50.154;8.682;2023-04-03T14:43:42;101126.00;;;22.40
65569;BMP180;52211;50.154;8.682;2023-04-03T14:46:30;101123.00;;;22.20
65569;BMP180;52211;50.154;8.682;2023-04-03T14:49:24;101121.00;;;22.20
65569;BMP180;52211;50.154;8.682;2023-04-03T14:51:56;101123.00;;;22.10
65569;BMP180;52211;50.154;8.682;2023-04-03T14:54:26;101121.00;;;22.00
65569;BMP180;52211;50.154;8.682;2023-04-03T14:57:03;101118.00;;;21.90
65569;BMP180;52211;50.154;8.682;2023-04-03T14:59:37;101120.00;;;21.70
65569;BMP180;52211;50.154;8.682;2023-04-03T15:04:51;101120.00;;;21.40
65569;BMP180;52211;50.154;8.682;2023-04-03T15:07:23;101117.00;;;21.20
65569;BMP180;52211;50.154;8.682;2023-04-03T15:09:50;101108.00;;;21.10
65569;BMP180;52211;50.154;8.682;2023-04-03T15:12:24;101120.00;;;21.00
65569;BMP180;52211;50.154;8.682;2023-04-03T15:14:51;101119.00;;;20.80
65569;BMP180;52211;50.154;8.682;2023-04-03T15:17:33;101109.00;;;20.50
65569;BMP180;52211;50.154;8.682;2023-04-03T15:20:19;101114.00;;;20.20
65569;BMP180;52211;50.154;8.682;2023-04-03T15:22:48;101115.00;;;20.10
65569;BMP180;52211;50.154;8.682;2023-04-03T15:25:18;101117.00;;;20.00
65569;BMP180;52211;50.154;8.682;2023-04-03T15:27:48;101123.00;;;19.90
65569;BMP180;52211;50.154;8.682;2023-04-03T15:30:21;101118.00;;;19.80
65569;BMP180;52211;50.154;8.682;2023-04-03T15:32:48;101113.00;;;19.80
65569;BMP180;52211;50.154;8.682;2023-04-03T15:35:16;101110.00;;;19.60
65569;BMP180;52211;50.154;8.682;2023-04-03T15:37:43;101114.00;;;19.40
65569;BMP180;52211;50.154;8.682;2023-04-03T15:40:10;101117.00;;;19.20
65569;BMP180;52211;50.154;8.682;2023-04-03T15:42:40;101104.00;;;19.00
65569;BMP180;52211;50.154;8.682;2023-04-03T15:45:08;101101.00;;;18.90
65569;BMP180;52211;50.154;8.682;2023-04-03T15:47:40;101102.00;;;18.80
65569;BMP180;52211;50.154;8.682;2023-04-03T15:50:08;101111.00;;;18.70
65569;BMP180;52211;50.154;8.682;2023-04-03T15:52:40;101104.00;;;18.60
65569;BMP180;52211;50.154;8.682;2023-04-03T15:55:07;101110.00;;;18.40
65569;BMP180;52211;50.154;8.682;2023-04-03T15:57:36;101100.00;;;18.20